Porterfield, Wisconsin
Current Conditions -  °F | °C
As of 6:55 AM on Friday 19 Dec 2014 (Local Time) from KMNM Reporting Station
Clear Clear  
Wind Chill: 14°   Ceiling: Unl
Heat Index: 14°   Visibility: 10mi
Dew Point: 10°   Wind: 3mph
Humidity: 86%   Direction: 320°NW
Pressure: 30.29"   Gusts: NA
Location:  45.15°N, 87.79°W
Report Text: KMNM 191255Z AUTO 32003KT 10SM CLR M10/M12 A3029 RMK AO1
Loading
Personal Weather Stations






























Interactive Weather Map New forecast layout! Learn more

10-Day Weather Forecast

Advertisements
Track Severe Weather on mobile